sensor_id;sensor_type;location;lat;lon;timestamp;P1;durP1;ratioP1;P2;durP2;ratioP2
21810;SDS011;11067;48.788;9.208;2022-07-23T00:00:54;7.45;;;4.43;;
21810;SDS011;11067;48.788;9.208;2022-07-23T00:03:19;5.33;;;4.60;;
21810;SDS011;11067;48.788;9.208;2022-07-23T00:05:45;6.53;;;4.67;;
21810;SDS011;11067;48.788;9.208;2022-07-23T00:08:10;4.90;;;4.43;;
21810;SDS011;11067;48.788;9.208;2022-07-23T00:10:36;5.60;;;4.73;;
21810;SDS011;11067;48.788;9.208;2022-07-23T00:13:02;5.10;;;4.57;;
21810;SDS011;11067;48.788;9.208;2022-07-23T00:15:27;5.00;;;4.40;;
21810;SDS011;11067;48.788;9.208;2022-07-23T00:17:53;6.65;;;4.25;;
21810;SDS011;11067;48.788;9.208;2022-07-23T00:20:19;5.40;;;4.10;;
21810;SDS011;11067;48.788;9.208;2022-07-23T00:22:47;5.03;;;4.10;;
21810;SDS011;11067;48.788;9.208;2022-07-23T00:25:14;4.68;;;4.20;;
21810;SDS011;11067;48.788;9.208;2022-07-23T00:27:40;4.85;;;4.13;;
21810;SDS011;11067;48.788;9.208;2022-07-23T00:30:06;6.30;;;4.40;;
21810;SDS011;11067;48.788;9.208;2022-07-23T00:32:32;5.20;;;4.07;;
21810;SDS011;11067;48.788;9.208;2022-07-23T00:34:58;4.32;;;3.40;;
21810;SDS011;11067;48.788;9.208;2022-07-23T00:37:23;5.27;;;3.87;;
21810;SDS011;11067;48.788;9.208;2022-07-23T00:39:49;6.05;;;3.90;;
21810;SDS011;11067;48.788;9.208;2022-07-23T00:42:14;4.10;;;3.70;;
21810;SDS011;11067;48.788;9.208;2022-07-23T00:44:40;5.17;;;3.83;;
21810;SDS011;11067;48.788;9.208;2022-07-23T00:47:05;5.60;;;3.87;;
21810;SDS011;11067;48.788;9.208;2022-07-23T00:49:31;5.00;;;4.18;;
21810;SDS011;11067;48.788;9.208;2022-07-23T00:51:57;5.45;;;3.80;;
21810;SDS011;11067;48.788;9.208;2022-07-23T00:54:26;4.40;;;3.90;;
21810;SDS011;11067;48.788;9.208;2022-07-23T00:56:52;4.95;;;3.75;;
21810;SDS011;11067;48.788;9.208;2022-07-23T00:59:19;6.38;;;4.20;;
21810;SDS011;11067;48.788;9.208;2022-07-23T01:01:45;5.47;;;4.38;;
21810;SDS011;11067;48.788;9.208;2022-07-23T01:04:12;5.07;;;4.10;;
21810;SDS011;11067;48.788;9.208;2022-07-23T01:06:40;4.30;;;3.90;;
21810;SDS011;11067;48.788;9.208;2022-07-23T01:09:05;4.75;;;3.83;;
21810;SDS011;11067;48.788;9.208;2022-07-23T01:11:35;4.70;;;4.30;;
21810;SDS011;11067;48.788;9.208;2022-07-23T01:14:11;10.88;;;4.30;;
21810;SDS011;11067;48.788;9.208;2022-07-23T01:16:39;4.95;;;3.83;;
21810;SDS011;11067;48.788;9.208;2022-07-23T01:19:05;5.37;;;4.00;;
21810;SDS011;11067;48.788;9.208;2022-07-23T01:21:33;4.43;;;3.90;;
21810;SDS011;11067;48.788;9.208;2022-07-23T01:24:01;5.28;;;3.70;;
21810;SDS011;11067;48.788;9.208;2022-07-23T01:26:27;4.40;;;4.00;;
21810;SDS011;11067;48.788;9.208;2022-07-23T01:28:52;5.95;;;3.95;;
21810;SDS011;11067;48.788;9.208;2022-07-23T01:31:18;4.70;;;4.10;;
21810;SDS011;11067;48.788;9.208;2022-07-23T01:33:44;4.43;;;3.72;;
21810;SDS011;11067;48.788;9.208;2022-07-23T01:36:09;4.80;;;4.00;;
21810;SDS011;11067;48.788;9.208;2022-07-23T01:38:35;6.07;;;4.30;;
21810;SDS011;11067;48.788;9.208;2022-07-23T01:41:00;5.97;;;3.90;;
21810;SDS011;11067;48.788;9.208;2022-07-23T01:43:26;4.57;;;4.17;;
21810;SDS011;11067;48.788;9.208;2022-07-23T01:45:52;4.47;;;3.72;;
21810;SDS011;11067;48.788;9.208;2022-07-23T01:48:17;5.27;;;4.10;;
21810;SDS011;11067;48.788;9.208;2022-07-23T01:50:43;5.23;;;3.90;;
21810;SDS011;11067;48.788;9.208;2022-07-23T01:53:08;4.97;;;3.72;;
21810;SDS011;11067;48.788;9.208;2022-07-23T01:55:34;4.47;;;4.07;;
21810;SDS011;11067;48.788;9.208;2022-07-23T01:57:59;4.67;;;4.10;;
21810;SDS011;11067;48.788;9.208;2022-07-23T02:00:25;4.65;;;4.00;;
21810;SDS011;11067;48.788;9.208;2022-07-23T02:02:50;4.90;;;4.10;;
21810;SDS011;11067;48.788;9.208;2022-07-23T02:05:16;4.23;;;3.83;;
21810;SDS011;11067;48.788;9.208;2022-07-23T02:07:41;5.30;;;3.88;;
21810;SDS011;11067;48.788;9.208;2022-07-23T02:10:07;4.73;;;4.20;;
21810;SDS011;11067;48.788;9.208;2022-07-23T02:12:33;4.68;;;4.13;;
21810;SDS011;11067;48.788;9.208;2022-07-23T02:14:59;5.20;;;4.18;;
21810;SDS011;11067;48.788;9.208;2022-07-23T02:17:24;4.87;;;4.40;;
21810;SDS011;11067;48.788;9.208;2022-07-23T02:19:50;4.83;;;4.33;;
21810;SDS011;11067;48.788;9.208;2022-07-23T02:22:15;5.90;;;4.40;;
21810;SDS011;11067;48.788;9.208;2022-07-23T02:24:41;4.80;;;4.30;;
21810;SDS011;11067;48.788;9.208;2022-07-23T02:27:06;4.77;;;4.23;;
21810;SDS011;11067;48.788;9.208;2022-07-23T02:29:32;5.00;;;4.15;;
21810;SDS011;11067;48.788;9.208;2022-07-23T02:31:57;6.03;;;4.40;;
21810;SDS011;11067;48.788;9.208;2022-07-23T02:34:23;5.00;;;4.10;;
21810;SDS011;11067;48.788;9.208;2022-07-23T02:36:48;4.97;;;4.47;;
21810;SDS011;11067;48.788;9.208;2022-07-23T02:39:14;5.13;;;4.63;;
21810;SDS011;11067;48.788;9.208;2022-07-23T02:41:39;5.35;;;4.53;;
21810;SDS011;11067;48.788;9.208;2022-07-23T02:44:05;5.20;;;4.20;;
21810;SDS011;11067;48.788;9.208;2022-07-23T02:46:30;4.77;;;3.97;;
21810;SDS011;11067;48.788;9.208;2022-07-23T02:48:56;4.68;;;4.10;;
21810;SDS011;11067;48.788;9.208;2022-07-23T02:51:22;4.43;;;4.03;;
21810;SDS011;11067;48.788;9.208;2022-07-23T02:53:47;5.40;;;4.50;;
21810;SDS011;11067;48.788;9.208;2022-07-23T02:56:13;6.15;;;4.15;;
21810;SDS011;11067;48.788;9.208;2022-07-23T02:58:38;5.33;;;4.00;;
21810;SDS011;11067;48.788;9.208;2022-07-23T03:01:04;4.27;;;3.87;;
21810;SDS011;11067;48.788;9.208;2022-07-23T03:03:29;5.15;;;4.00;;
21810;SDS011;11067;48.788;9.208;2022-07-23T03:05:55;4.30;;;3.90;;
21810;SDS011;11067;48.788;9.208;2022-07-23T03:08:20;5.65;;;3.70;;
21810;SDS011;11067;48.788;9.208;2022-07-23T03:10:46;4.57;;;3.80;;
21810;SDS011;11067;48.788;9.208;2022-07-23T03:13:11;5.10;;;4.20;;
21810;SDS011;11067;48.788;9.208;2022-07-23T03:15:37;5.65;;;4.25;;
21810;SDS011;11067;48.788;9.208;2022-07-23T03:18:02;5.00;;;3.87;;
21810;SDS011;11067;48.788;9.208;2022-07-23T03:20:28;4.67;;;4.27;;
21810;SDS011;11067;48.788;9.208;2022-07-23T03:22:53;6.45;;;4.70;;
21810;SDS011;11067;48.788;9.208;2022-07-23T03:25:19;5.50;;;4.33;;
21810;SDS011;11067;48.788;9.208;2022-07-23T03:27:44;5.38;;;4.50;;
21810;SDS011;11067;48.788;9.208;2022-07-23T03:30:10;5.90;;;4.53;;
21810;SDS011;11067;48.788;9.208;2022-07-23T03:32:36;6.70;;;4.38;;
21810;SDS011;11067;48.788;9.208;2022-07-23T03:35:02;6.05;;;4.47;;
21810;SDS011;11067;48.788;9.208;2022-07-23T03:37:28;5.68;;;4.47;;
21810;SDS011;11067;48.788;9.208;2022-07-23T03:39:54;5.67;;;4.67;;
21810;SDS011;11067;48.788;9.208;2022-07-23T03:42:19;4.72;;;4.07;;
21810;SDS011;11067;48.788;9.208;2022-07-23T03:44:45;6.30;;;4.90;;
21810;SDS011;11067;48.788;9.208;2022-07-23T03:47:10;5.03;;;4.57;;
21810;SDS011;11067;48.788;9.208;2022-07-23T03:49:36;4.82;;;4.30;;
21810;SDS011;11067;48.788;9.208;2022-07-23T03:52:01;5.37;;;4.53;;
21810;SDS011;11067;48.788;9.208;2022-07-23T03:54:27;6.30;;;4.72;;
21810;SDS011;11067;48.788;9.208;2022-07-23T03:56:53;5.03;;;4.53;;
21810;SDS011;11067;48.788;9.208;2022-07-23T03:59:18;5.10;;;4.60;;
21810;SDS011;11067;48.788;9.208;2022-07-23T04:01:44;6.50;;;5.00;;
21810;SDS011;11067;48.788;9.208;2022-07-23T04:04:09;5.22;;;4.22;;
21810;SDS011;11067;48.788;9.208;2022-07-23T04:06:35;5.10;;;4.40;;
21810;SDS011;11067;48.788;9.208;2022-07-23T04:09:01;6.32;;;4.80;;
21810;SDS011;11067;48.788;9.208;2022-07-23T04:11:27;7.07;;;4.90;;
21810;SDS011;11067;48.788;9.208;2022-07-23T04:13:53;7.32;;;4.60;;
21810;SDS011;11067;48.788;9.208;2022-07-23T04:16:18;5.90;;;4.50;;
21810;SDS011;11067;48.788;9.208;2022-07-23T04:18:44;6.47;;;5.10;;
21810;SDS011;11067;48.788;9.208;2022-07-23T04:21:10;5.68;;;4.80;;
21810;SDS011;11067;48.788;9.208;2022-07-23T04:23:35;5.47;;;4.93;;
21810;SDS011;11067;48.788;9.208;2022-07-23T04:26:00;5.27;;;4.70;;
21810;SDS011;11067;48.788;9.208;2022-07-23T04:28:26;6.50;;;4.53;;
21810;SDS011;11067;48.788;9.208;2022-07-23T04:30:52;6.70;;;4.83;;
21810;SDS011;11067;48.788;9.208;2022-07-23T04:33:17;5.80;;;5.20;;
21810;SDS011;11067;48.788;9.208;2022-07-23T04:35:43;7.60;;;5.20;;
21810;SDS011;11067;48.788;9.208;2022-07-23T04:38:08;5.17;;;4.67;;
21810;SDS011;11067;48.788;9.208;2022-07-23T04:40:34;5.13;;;4.63;;
21810;SDS011;11067;48.788;9.208;2022-07-23T04:42:59;5.73;;;4.87;;
21810;SDS011;11067;48.788;9.208;2022-07-23T04:45:25;5.97;;;4.73;;
21810;SDS011;11067;48.788;9.208;2022-07-23T04:47:50;5.72;;;4.80;;
21810;SDS011;11067;48.788;9.208;2022-07-23T04:50:16;5.83;;;4.90;;
21810;SDS011;11067;48.788;9.208;2022-07-23T04:52:46;5.53;;;4.93;;
21810;SDS011;11067;48.788;9.208;2022-07-23T04:55:12;6.13;;;4.78;;
21810;SDS011;11067;48.788;9.208;2022-07-23T04:57:37;7.27;;;5.00;;
21810;SDS011;11067;48.788;9.208;2022-07-23T05:00:03;5.60;;;5.10;;
21810;SDS011;11067;48.788;9.208;2022-07-23T05:02:29;6.97;;;5.25;;
21810;SDS011;11067;48.788;9.208;2022-07-23T05:04:54;6.30;;;5.60;;
21810;SDS011;11067;48.788;9.208;2022-07-23T05:07:20;11.50;;;5.73;;
21810;SDS011;11067;48.788;9.208;2022-07-23T05:09:45;6.93;;;4.95;;
21810;SDS011;11067;48.788;9.208;2022-07-23T05:12:11;5.70;;;5.20;;
21810;SDS011;11067;48.788;9.208;2022-07-23T05:14:37;6.37;;;5.17;;
21810;SDS011;11067;48.788;9.208;2022-07-23T05:17:02;6.93;;;5.47;;
21810;SDS011;11067;48.788;9.208;2022-07-23T05:19:28;7.47;;;5.17;;
21810;SDS011;11067;48.788;9.208;2022-07-23T05:21:53;5.83;;;5.03;;
21810;SDS011;11067;48.788;9.208;2022-07-23T05:24:19;5.55;;;4.95;;
21810;SDS011;11067;48.788;9.208;2022-07-23T05:26:44;5.57;;;5.03;;
21810;SDS011;11067;48.788;9.208;2022-07-23T05:29:10;6.17;;;4.53;;
21810;SDS011;11067;48.788;9.208;2022-07-23T05:31:35;5.97;;;4.90;;
21810;SDS011;11067;48.788;9.208;2022-07-23T05:34:01;5.70;;;4.57;;
21810;SDS011;11067;48.788;9.208;2022-07-23T05:36:26;7.23;;;5.30;;
21810;SDS011;11067;48.788;9.208;2022-07-23T05:38:51;6.70;;;4.80;;
21810;SDS011;11067;48.788;9.208;2022-07-23T05:41:17;5.93;;;4.67;;
21810;SDS011;11067;48.788;9.208;2022-07-23T05:43:42;5.40;;;4.70;;
21810;SDS011;11067;48.788;9.208;2022-07-23T05:46:08;5.80;;;4.43;;
21810;SDS011;11067;48.788;9.208;2022-07-23T05:48:34;6.97;;;4.57;;
21810;SDS011;11067;48.788;9.208;2022-07-23T05:50:59;5.05;;;4.55;;
21810;SDS011;11067;48.788;9.208;2022-07-23T05:53:25;6.72;;;4.80;;
21810;SDS011;11067;48.788;9.208;2022-07-23T05:55:51;12.03;;;5.83;;
21810;SDS011;11067;48.788;9.208;2022-07-23T05:58:17;7.40;;;4.90;;
21810;SDS011;11067;48.788;9.208;2022-07-23T06:00:42;6.57;;;5.00;;
21810;SDS011;11067;48.788;9.208;2022-07-23T06:03:07;6.17;;;4.73;;
21810;SDS011;11067;48.788;9.208;2022-07-23T06:05:33;7.67;;;4.93;;
21810;SDS011;11067;48.788;9.208;2022-07-23T06:07:59;6.25;;;5.05;;
21810;SDS011;11067;48.788;9.208;2022-07-23T06:10:24;5.77;;;4.87;;
21810;SDS011;11067;48.788;9.208;2022-07-23T06:12:50;5.20;;;4.70;;
21810;SDS011;11067;48.788;9.208;2022-07-23T06:15:15;5.32;;;4.68;;
21810;SDS011;11067;48.788;9.208;2022-07-23T06:17:41;5.73;;;5.10;;
21810;SDS011;11067;48.788;9.208;2022-07-23T06:20:07;5.90;;;5.23;;
21810;SDS011;11067;48.788;9.208;2022-07-23T06:22:34;6.78;;;5.50;;
21810;SDS011;11067;48.788;9.208;2022-07-23T06:24:59;5.32;;;4.82;;
21810;SDS011;11067;48.788;9.208;2022-07-23T06:27:25;5.57;;;4.97;;
21810;SDS011;11067;48.788;9.208;2022-07-23T06:29:50;5.70;;;5.13;;
21810;SDS011;11067;48.788;9.208;2022-07-23T06:32:16;5.57;;;4.93;;
21810;SDS011;11067;48.788;9.208;2022-07-23T06:34:41;5.27;;;4.77;;
21810;SDS011;11067;48.788;9.208;2022-07-23T06:37:07;5.65;;;5.13;;
21810;SDS011;11067;48.788;9.208;2022-07-23T06:39:32;6.18;;;5.40;;
21810;SDS011;11067;48.788;9.208;2022-07-23T06:41:58;5.60;;;4.97;;
21810;SDS011;11067;48.788;9.208;2022-07-23T06:44:23;5.70;;;5.10;;
21810;SDS011;11067;48.788;9.208;2022-07-23T06:46:49;6.22;;;5.32;;
21810;SDS011;11067;48.788;9.208;2022-07-23T06:49:14;7.33;;;5.37;;
21810;SDS011;11067;48.788;9.208;2022-07-23T06:51:40;5.53;;;5.03;;
21810;SDS011;11067;48.788;9.208;2022-07-23T06:54:05;5.88;;;5.25;;
21810;SDS011;11067;48.788;9.208;2022-07-23T06:56:31;5.87;;;5.00;;
21810;SDS011;11067;48.788;9.208;2022-07-23T06:58:57;6.07;;;4.88;;
21810;SDS011;11067;48.788;9.208;2022-07-23T07:01:22;6.03;;;4.97;;
21810;SDS011;11067;48.788;9.208;2022-07-23T07:03:48;6.50;;;5.37;;
21810;SDS011;11067;48.788;9.208;2022-07-23T07:06:13;5.95;;;5.32;;
21810;SDS011;11067;48.788;9.208;2022-07-23T07:08:39;7.83;;;5.03;;
21810;SDS011;11067;48.788;9.208;2022-07-23T07:11:05;7.57;;;5.32;;
21810;SDS011;11067;48.788;9.208;2022-07-23T07:13:30;6.53;;;4.87;;
21810;SDS011;11067;48.788;9.208;2022-07-23T07:15:56;7.27;;;5.63;;
21810;SDS011;11067;48.788;9.208;2022-07-23T07:18:21;7.93;;;5.32;;
21810;SDS011;11067;48.788;9.208;2022-07-23T07:20:48;9.00;;;5.47;;
21810;SDS011;11067;48.788;9.208;2022-07-23T07:23:14;6.93;;;5.45;;
21810;SDS011;11067;48.788;9.208;2022-07-23T07:25:39;7.03;;;5.35;;
21810;SDS011;11067;48.788;9.208;2022-07-23T07:28:05;7.40;;;5.60;;
21810;SDS011;11067;48.788;9.208;2022-07-23T07:30:31;6.60;;;5.20;;
21810;SDS011;11067;48.788;9.208;2022-07-23T07:32:56;6.60;;;5.30;;
21810;SDS011;11067;48.788;9.208;2022-07-23T07:35:22;6.67;;;5.40;;
21810;SDS011;11067;48.788;9.208;2022-07-23T07:37:48;6.95;;;5.30;;
21810;SDS011;11067;48.788;9.208;2022-07-23T07:40:13;7.30;;;5.37;;
21810;SDS011;11067;48.788;9.208;2022-07-23T07:42:45;7.70;;;6.20;;
21810;SDS011;11067;48.788;9.208;2022-07-23T07:45:11;6.83;;;5.37;;
21810;SDS011;11067;48.788;9.208;2022-07-23T07:47:37;6.45;;;5.53;;
21810;SDS011;11067;48.788;9.208;2022-07-23T07:50:03;5.93;;;5.30;;
21810;SDS011;11067;48.788;9.208;2022-07-23T07:52:28;6.35;;;5.50;;
21810;SDS011;11067;48.788;9.208;2022-07-23T07:54:54;6.07;;;5.20;;
21810;SDS011;11067;48.788;9.208;2022-07-23T07:57:20;6.57;;;4.88;;
21810;SDS011;11067;48.788;9.208;2022-07-23T07:59:45;6.10;;;5.43;;
21810;SDS011;11067;48.788;9.208;2022-07-23T08:02:11;6.25;;;5.32;;
21810;SDS011;11067;48.788;9.208;2022-07-23T08:04:36;6.83;;;5.40;;
21810;SDS011;11067;48.788;9.208;2022-07-23T08:07:02;5.45;;;4.78;;
21810;SDS011;11067;48.788;9.208;2022-07-23T08:09:27;6.07;;;4.83;;
21810;SDS011;11067;48.788;9.208;2022-07-23T08:11:53;6.63;;;5.33;;
21810;SDS011;11067;48.788;9.208;2022-07-23T08:14:19;6.10;;;5.28;;
21810;SDS011;11067;48.788;9.208;2022-07-23T08:16:44;6.60;;;5.20;;
21810;SDS011;11067;48.788;9.208;2022-07-23T08:19:10;5.85;;;5.20;;
21810;SDS011;11067;48.788;9.208;2022-07-23T08:21:35;5.93;;;5.23;;
21810;SDS011;11067;48.788;9.208;2022-07-23T08:24:00;5.97;;;5.30;;
21810;SDS011;11067;48.788;9.208;2022-07-23T08:26:26;7.30;;;4.72;;
21810;SDS011;11067;48.788;9.208;2022-07-23T08:28:51;5.97;;;4.83;;
21810;SDS011;11067;48.788;9.208;2022-07-23T08:31:17;7.27;;;5.23;;
21810;SDS011;11067;48.788;9.208;2022-07-23T08:33:43;6.73;;;5.00;;
21810;SDS011;11067;48.788;9.208;2022-07-23T08:36:09;6.63;;;4.85;;
21810;SDS011;11067;48.788;9.208;2022-07-23T08:38:34;6.80;;;5.27;;
21810;SDS011;11067;48.788;9.208;2022-07-23T08:41:00;6.50;;;5.20;;
21810;SDS011;11067;48.788;9.208;2022-07-23T08:43:29;6.73;;;5.30;;
21810;SDS011;11067;48.788;9.208;2022-07-23T08:45:57;5.82;;;5.22;;
21810;SDS011;11067;48.788;9.208;2022-07-23T08:48:26;5.93;;;5.10;;
21810;SDS011;11067;48.788;9.208;2022-07-23T08:50:57;6.93;;;5.47;;
21810;SDS011;11067;48.788;9.208;2022-07-23T08:53:25;6.60;;;5.50;;
21810;SDS011;11067;48.788;9.208;2022-07-23T08:55:52;6.95;;;4.95;;
21810;SDS011;11067;48.788;9.208;2022-07-23T08:58:20;6.40;;;5.03;;
21810;SDS011;11067;48.788;9.208;2022-07-23T09:00:46;7.97;;;5.47;;
21810;SDS011;11067;48.788;9.208;2022-07-23T09:03:23;6.15;;;5.55;;
21810;SDS011;11067;48.788;9.208;2022-07-23T09:05:51;7.40;;;5.40;;
21810;SDS011;11067;48.788;9.208;2022-07-23T09:08:19;6.10;;;5.50;;
21810;SDS011;11067;48.788;9.208;2022-07-23T09:10:56;7.07;;;5.50;;
21810;SDS011;11067;48.788;9.208;2022-07-23T09:13:36;7.35;;;5.78;;
21810;SDS011;11067;48.788;9.208;2022-07-23T09:16:10;8.03;;;5.27;;
21810;SDS011;11067;48.788;9.208;2022-07-23T09:18:42;6.50;;;5.07;;
21810;SDS011;11067;48.788;9.208;2022-07-23T09:21:22;6.07;;;5.10;;
21810;SDS011;11067;48.788;9.208;2022-07-23T09:26:36;6.22;;;5.35;;
21810;SDS011;11067;48.788;9.208;2022-07-23T09:29:14;6.03;;;5.05;;
21810;SDS011;11067;48.788;9.208;2022-07-23T09:31:47;9.73;;;5.07;;
21810;SDS011;11067;48.788;9.208;2022-07-23T09:34:20;5.97;;;4.90;;
21810;SDS011;11067;48.788;9.208;2022-07-23T09:36:48;5.93;;;5.32;;
21810;SDS011;11067;48.788;9.208;2022-07-23T09:39:16;6.20;;;5.00;;
21810;SDS011;11067;48.788;9.208;2022-07-23T09:41:51;10.13;;;5.57;;
21810;SDS011;11067;48.788;9.208;2022-07-23T09:44:17;6.25;;;4.90;;
21810;SDS011;11067;48.788;9.208;2022-07-23T09:46:45;6.82;;;4.95;;
21810;SDS011;11067;48.788;9.208;2022-07-23T09:54:21;5.95;;;4.78;;
21810;SDS011;11067;48.788;9.208;2022-07-23T09:56:59;5.55;;;4.97;;
21810;SDS011;11067;48.788;9.208;2022-07-23T09:59:31;5.57;;;4.97;;
21810;SDS011;11067;48.788;9.208;2022-07-23T10:01:59;5.57;;;5.07;;
21810;SDS011;11067;48.788;9.208;2022-07-23T10:04:28;5.25;;;4.75;;
21810;SDS011;11067;48.788;9.208;2022-07-23T10:06:56;6.65;;;5.32;;
21810;SDS011;11067;48.788;9.208;2022-07-23T10:09:26;6.70;;;5.30;;
21810;SDS011;11067;48.788;9.208;2022-07-23T10:11:56;6.03;;;5.23;;
21810;SDS011;11067;48.788;9.208;2022-07-23T10:14:31;5.80;;;5.30;;
21810;SDS011;11067;48.788;9.208;2022-07-23T10:16:58;5.40;;;4.80;;
21810;SDS011;11067;48.788;9.208;2022-07-23T10:19:25;5.60;;;5.00;;
21810;SDS011;11067;48.788;9.208;2022-07-23T10:22:00;6.10;;;4.80;;
21810;SDS011;11067;48.788;9.208;2022-07-23T10:24:36;5.82;;;4.75;;
21810;SDS011;11067;48.788;9.208;2022-07-23T10:33:41;5.53;;;4.65;;
21810;SDS011;11067;48.788;9.208;2022-07-23T10:38:58;5.45;;;4.82;;
21810;SDS011;11067;48.788;9.208;2022-07-23T10:41:38;7.85;;;5.32;;
21810;SDS011;11067;48.788;9.208;2022-07-23T10:44:05;5.32;;;4.82;;
21810;SDS011;11067;48.788;9.208;2022-07-23T10:49:33;4.88;;;4.38;;
21810;SDS011;11067;48.788;9.208;2022-07-23T10:54:43;5.20;;;4.70;;
21810;SDS011;11067;48.788;9.208;2022-07-23T10:57:47;6.47;;;5.40;;
21810;SDS011;11067;48.788;9.208;2022-07-23T11:00:14;5.30;;;4.80;;
21810;SDS011;11067;48.788;9.208;2022-07-23T11:02:43;6.70;;;4.80;;
21810;SDS011;11067;48.788;9.208;2022-07-23T11:05:14;5.60;;;5.00;;
21810;SDS011;11067;48.788;9.208;2022-07-23T11:10:35;4.43;;;4.03;;
21810;SDS011;11067;48.788;9.208;2022-07-23T11:32:17;5.38;;;4.88;;
21810;SDS011;11067;48.788;9.208;2022-07-23T11:34:49;5.55;;;5.00;;
21810;SDS011;11067;48.788;9.208;2022-07-23T11:37:28;5.07;;;4.57;;
21810;SDS011;11067;48.788;9.208;2022-07-23T11:40:05;5.00;;;4.50;;
21810;SDS011;11067;48.788;9.208;2022-07-23T11:42:37;4.90;;;4.40;;
21810;SDS011;11067;48.788;9.208;2022-07-23T11:45:16;5.27;;;4.77;;
21810;SDS011;11067;48.788;9.208;2022-07-23T11:47:41;5.22;;;4.72;;
21810;SDS011;11067;48.788;9.208;2022-07-23T11:50:07;5.50;;;4.60;;
21810;SDS011;11067;48.788;9.208;2022-07-23T11:52:32;7.00;;;5.43;;
21810;SDS011;11067;48.788;9.208;2022-07-23T11:55:00;5.10;;;4.60;;
21810;SDS011;11067;48.788;9.208;2022-07-23T11:57:29;5.55;;;4.82;;
21810;SDS011;11067;48.788;9.208;2022-07-23T11:59:56;5.90;;;4.97;;
21810;SDS011;11067;48.788;9.208;2022-07-23T12:02:34;6.07;;;5.07;;
21810;SDS011;11067;48.788;9.208;2022-07-23T12:05:00;5.17;;;4.60;;
21810;SDS011;11067;48.788;9.208;2022-07-23T12:09:58;5.60;;;5.00;;
21810;SDS011;11067;48.788;9.208;2022-07-23T12:12:25;6.80;;;5.18;;
21810;SDS011;11067;48.788;9.208;2022-07-23T12:14:53;7.45;;;5.20;;
21810;SDS011;11067;48.788;9.208;2022-07-23T12:17:19;5.40;;;4.90;;
21810;SDS011;11067;48.788;9.208;2022-07-23T12:19:46;5.97;;;5.20;;
21810;SDS011;11067;48.788;9.208;2022-07-23T12:22:12;5.97;;;5.03;;
21810;SDS011;11067;48.788;9.208;2022-07-23T12:25:27;6.30;;;5.00;;
21810;SDS011;11067;48.788;9.208;2022-07-23T12:27:29;5.80;;;5.07;;
21810;SDS011;11067;48.788;9.208;2022-07-23T12:29:55;5.90;;;5.30;;
21810;SDS011;11067;48.788;9.208;2022-07-23T12:32:22;7.43;;;5.23;;
21810;SDS011;11067;48.788;9.208;2022-07-23T12:34:49;7.53;;;5.25;;
21810;SDS011;11067;48.788;9.208;2022-07-23T12:37:32;5.85;;;4.70;;
21810;SDS011;11067;48.788;9.208;2022-07-23T12:43:01;6.27;;;4.70;;
21810;SDS011;11067;48.788;9.208;2022-07-23T12:45:42;5.37;;;4.87;;
21810;SDS011;11067;48.788;9.208;2022-07-23T12:48:15;6.22;;;4.93;;
21810;SDS011;11067;48.788;9.208;2022-07-23T12:53:19;5.60;;;5.00;;
21810;SDS011;11067;48.788;9.208;2022-07-23T12:55:45;6.22;;;5.30;;
21810;SDS011;11067;48.788;9.208;2022-07-23T12:58:13;6.00;;;5.37;;
21810;SDS011;11067;48.788;9.208;2022-07-23T13:01:00;6.03;;;5.43;;
21810;SDS011;11067;48.788;9.208;2022-07-23T13:03:30;6.80;;;5.60;;
21810;SDS011;11067;48.788;9.208;2022-07-23T13:06:04;6.65;;;5.63;;
21810;SDS011;11067;48.788;9.208;2022-07-23T13:08:31;5.65;;;4.93;;
21810;SDS011;11067;48.788;9.208;2022-07-23T13:10:58;6.30;;;5.32;;
21810;SDS011;11067;48.788;9.208;2022-07-23T13:13:24;7.90;;;5.60;;
21810;SDS011;11067;48.788;9.208;2022-07-23T13:15:51;6.63;;;4.85;;
21810;SDS011;11067;48.788;9.208;2022-07-23T13:18:18;5.93;;;4.90;;
21810;SDS011;11067;48.788;9.208;2022-07-23T13:20:45;7.15;;;5.30;;
21810;SDS011;11067;48.788;9.208;2022-07-23T13:23:11;14.05;;;6.13;;
21810;SDS011;11067;48.788;9.208;2022-07-23T13:25:37;5.83;;;5.30;;
21810;SDS011;11067;48.788;9.208;2022-07-23T13:28:02;5.93;;;5.25;;
21810;SDS011;11067;48.788;9.208;2022-07-23T13:30:29;6.13;;;5.20;;
21810;SDS011;11067;48.788;9.208;2022-07-23T13:32:54;5.60;;;5.00;;
21810;SDS011;11067;48.788;9.208;2022-07-23T13:35:20;5.07;;;4.67;;
21810;SDS011;11067;48.788;9.208;2022-07-23T13:37:46;5.22;;;4.72;;
21810;SDS011;11067;48.788;9.208;2022-07-23T13:40:11;5.40;;;4.90;;
21810;SDS011;11067;48.788;9.208;2022-07-23T13:42:37;7.03;;;5.17;;
21810;SDS011;11067;48.788;9.208;2022-07-23T13:45:03;6.50;;;5.38;;
21810;SDS011;11067;48.788;9.208;2022-07-23T13:47:30;7.50;;;5.00;;
21810;SDS011;11067;48.788;9.208;2022-07-23T13:49:56;6.80;;;5.47;;
21810;SDS011;11067;48.788;9.208;2022-07-23T13:52:22;6.60;;;5.15;;
21810;SDS011;11067;48.788;9.208;2022-07-23T13:54:47;6.57;;;5.40;;
21810;SDS011;11067;48.788;9.208;2022-07-23T13:57:13;5.88;;;5.28;;
21810;SDS011;11067;48.788;9.208;2022-07-23T13:59:39;5.87;;;5.27;;
21810;SDS011;11067;48.788;9.208;2022-07-23T14:02:05;6.87;;;6.00;;
21810;SDS011;11067;48.788;9.208;2022-07-23T14:04:31;7.75;;;5.53;;
21810;SDS011;11067;48.788;9.208;2022-07-23T14:06:57;6.47;;;5.40;;
21810;SDS011;11067;48.788;9.208;2022-07-23T14:09:24;6.90;;;6.20;;
21810;SDS011;11067;48.788;9.208;2022-07-23T14:11:49;6.63;;;6.00;;
21810;SDS011;11067;48.788;9.208;2022-07-23T14:14:16;6.68;;;6.07;;
21810;SDS011;11067;48.788;9.208;2022-07-23T14:16:42;7.30;;;5.87;;
21810;SDS011;11067;48.788;9.208;2022-07-23T14:19:08;6.05;;;5.45;;
21810;SDS011;11067;48.788;9.208;2022-07-23T14:21:34;6.60;;;5.90;;
21810;SDS011;11067;48.788;9.208;2022-07-23T14:23:59;6.75;;;5.80;;
21810;SDS011;11067;48.788;9.208;2022-07-23T14:26:25;6.68;;;5.70;;
21810;SDS011;11067;48.788;9.208;2022-07-23T14:28:50;6.13;;;5.30;;
21810;SDS011;11067;48.788;9.208;2022-07-23T14:31:16;6.22;;;5.57;;
21810;SDS011;11067;48.788;9.208;2022-07-23T14:33:42;6.78;;;6.00;;
21810;SDS011;11067;48.788;9.208;2022-07-23T14:36:07;6.37;;;5.70;;
21810;SDS011;11067;48.788;9.208;2022-07-23T14:38:33;5.80;;;5.03;;
21810;SDS011;11067;48.788;9.208;2022-07-23T14:40:58;6.45;;;5.75;;
21810;SDS011;11067;48.788;9.208;2022-07-23T14:43:24;6.40;;;5.40;;
21810;SDS011;11067;48.788;9.208;2022-07-23T14:45:50;7.17;;;5.53;;
21810;SDS011;11067;48.788;9.208;2022-07-23T14:48:15;5.72;;;5.15;;
21810;SDS011;11067;48.788;9.208;2022-07-23T14:50:41;8.57;;;5.50;;
21810;SDS011;11067;48.788;9.208;2022-07-23T14:53:06;6.57;;;5.60;;
21810;SDS011;11067;48.788;9.208;2022-07-23T14:55:32;6.30;;;5.50;;
21810;SDS011;11067;48.788;9.208;2022-07-23T14:57:58;6.15;;;5.55;;
21810;SDS011;11067;48.788;9.208;2022-07-23T15:00:23;5.87;;;5.10;;
21810;SDS011;11067;48.788;9.208;2022-07-23T15:02:49;6.47;;;5.30;;
21810;SDS011;11067;48.788;9.208;2022-07-23T15:05:16;6.33;;;5.13;;
21810;SDS011;11067;48.788;9.208;2022-07-23T15:07:41;5.47;;;4.97;;
21810;SDS011;11067;48.788;9.208;2022-07-23T15:10:07;6.20;;;5.53;;
21810;SDS011;11067;48.788;9.208;2022-07-23T15:12:32;6.27;;;5.30;;
21810;SDS011;11067;48.788;9.208;2022-07-23T15:14:58;7.87;;;5.37;;
21810;SDS011;11067;48.788;9.208;2022-07-23T15:17:24;6.38;;;5.20;;
21810;SDS011;11067;48.788;9.208;2022-07-23T15:19:49;6.87;;;5.40;;
21810;SDS011;11067;48.788;9.208;2022-07-23T15:22:16;6.13;;;5.53;;
21810;SDS011;11067;48.788;9.208;2022-07-23T15:24:41;6.23;;;5.30;;
21810;SDS011;11067;48.788;9.208;2022-07-23T15:27:07;6.40;;;5.80;;
21810;SDS011;11067;48.788;9.208;2022-07-23T15:29:33;6.27;;;5.47;;
21810;SDS011;11067;48.788;9.208;2022-07-23T15:31:58;5.80;;;5.20;;
21810;SDS011;11067;48.788;9.208;2022-07-23T15:34:24;7.67;;;5.63;;
21810;SDS011;11067;48.788;9.208;2022-07-23T15:36:50;6.35;;;5.53;;
21810;SDS011;11067;48.788;9.208;2022-07-23T15:39:16;6.90;;;5.93;;